• pl
  • eng

Awiacja
WIADOMOŚCI
ostatnia aktualizacja: 17.04.2020 19:04
Szanowni Państwo,

mając na uwadze sytuację związaną z pandemią wywołaną koronawirusem SARS-Cov-2 oraz w trosce o bezpieczeństwo Państwa oraz naszych pracowników, IMGW-PIB podjął decyzję o przeniesieniu kolejnej edycji Szkoły Meteorologii Lotniczej na przyszły rok. W tej chwili podanie dokładnego terminu szkoły nie jest możliwe, ale jak tylko będzie znany zostanie ogłoszony na naszych stronach internetowych, do których śledzenia serdecznie zapraszamy.

Kliknij na pogrubioną czerwoną nazwę, aby odkodować depeszę. 21:01 29.05.2020
  • WIND
  • SIGNIFICANT EURO
  • SIGNIFICANT
  • SIGMET
  • AIRMET
  • TAF FC
  • TAF FT
  • METAR GG30
  • METAR GG00


METAR EPBY 291900Z 03010KT CAVOK 12/M00 Q1024=

METAR EPGD 291900Z 36010KT CAVOK 10/04 Q1026 =

METAR EPKK 291900Z 32005KT 9999 FEW066 13/02 Q1020 =

METAR EPKT 291900Z 34009KT CAVOK 12/01 Q1021 =

METAR EPLB 291900Z 33007KT CAVOK 14/06 Q1018 =

METAR EPLL 291900Z 34008KT 310V020 CAVOK 13/02 Q1022 =

METAR EPMO 291900Z 01009KT 350V050 CAVOK 14/05 Q1021 =

METAR EPPO 291900Z 02006KT CAVOK 13/02 Q1024 =

METAR EPRA 291900Z NIL=

METAR EPRZ 291900Z 33007KT CAVOK 13/04 Q1018 =

METAR EPSC 291900Z 36006KT 340V060 CAVOK 14/02 Q1027 =

METAR EPSY 291900Z NIL=

METAR EPWA 291900Z 01013KT CAVOK 15/04 Q1020 NOSIG=

METAR EPWR 291900Z 01004KT 340V040 CAVOK 14/02 Q1023 =

METAR EPZG 291900Z 33003KT 290V360 CAVOK 15/06 Q1024 =
 METAR EPLL
Lokalizacja:EPLL Łódź Lublinek
Czas:19:00 UTC
Średni kierunek wiatru:340 °
Średnia prędkość wiatru:8 węzłów
Kierunek wiatru zmienia się od:310 °
Kierunek wiatru zmienia się do:020 °
CAVOK:Widzialność 10 km i więcej, zjawisko: NIL, zachmurzenie: NSC
Temperatura powietrza:13 °C
Temperatura punktu rosy:2 °C
Ciśnienie QNH:1022 hPa
Awiacja.imgw.pl jest pogodowym serwisem informacyjnym
Instytutu Meteorologii i Gospodarki Wodnej Państwowego Instytutu Badawczego.
Copyright IMGW PIB 2009-2019© Wszelkie prawa zastrzeżone.